createdAt,value
2022-08-19T00:02:00.876Z,22.32
2022-08-19T00:04:33.942Z,22.26
2022-08-19T00:07:02.957Z,22.27
2022-08-19T00:09:31.934Z,22.22
2022-08-19T00:12:01.442Z,22.21
2022-08-19T00:14:32.786Z,22.18
2022-08-19T00:17:02.062Z,22.09
2022-08-19T00:19:32.696Z,22.07
2022-08-19T00:22:01.579Z,22.05
2022-08-19T00:24:30.070Z,22.06
2022-08-19T00:27:25.074Z,22.05
2022-08-19T00:29:52.629Z,22.01
2022-08-19T00:32:21.921Z,22.01
2022-08-19T00:34:53.786Z,21.97
2022-08-19T00:37:23.664Z,21.96
2022-08-19T00:39:53.141Z,21.93
2022-08-19T00:42:22.923Z,21.88
2022-08-19T00:44:51.658Z,21.87
2022-08-19T00:47:20.800Z,21.71
2022-08-19T00:49:56.114Z,21.59
2022-08-19T00:52:29.907Z,21.62
2022-08-19T00:54:59.830Z,21.71
2022-08-19T00:57:35.714Z,21.72
2022-08-19T01:00:07.905Z,21.74
2022-08-19T01:02:36.354Z,21.74
2022-08-19T01:05:12.968Z,21.71
2022-08-19T01:07:42.343Z,21.57
2022-08-19T01:10:15.940Z,21.58
2022-08-19T01:12:44.431Z,21.61
2022-08-19T01:15:16.499Z,21.62
2022-08-19T01:17:45.433Z,21.61
2022-08-19T01:20:20.261Z,21.52
2022-08-19T01:22:52.992Z,21.50
2022-08-19T01:25:25.110Z,21.51
2022-08-19T01:27:56.594Z,21.49
2022-08-19T01:30:34.936Z,21.45
2022-08-19T01:33:06.172Z,21.36
2022-08-19T01:35:37.121Z,21.33
2022-08-19T01:38:11.737Z,21.36
2022-08-19T01:40:43.280Z,21.32
2022-08-19T01:43:11.896Z,21.30
2022-08-19T01:45:41.226Z,21.30
2022-08-19T01:48:10.318Z,21.29
2022-08-19T01:50:39.148Z,21.24
2022-08-19T01:53:12.761Z,21.22
2022-08-19T01:55:44.663Z,21.17
2022-08-19T01:58:16.951Z,21.16
2022-08-19T02:00:46.348Z,21.11
2022-08-19T02:03:15.395Z,20.86
2022-08-19T02:05:44.780Z,20.94
2022-08-19T02:08:14.536Z,21.02
2022-08-19T02:10:45.429Z,21.06
2022-08-19T02:13:15.451Z,21.08
2022-08-19T02:15:43.802Z,21.06
2022-08-19T02:18:12.217Z,21.01
2022-08-19T02:20:42.883Z,20.98
2022-08-19T02:23:15.963Z,20.95
2022-08-19T02:25:46.177Z,20.93
2022-08-19T02:28:18.595Z,20.90
2022-08-19T02:30:49.304Z,20.86
2022-08-19T02:33:18.669Z,20.82
2022-08-19T02:35:47.940Z,20.82
2022-08-19T02:38:29.068Z,20.81
2022-08-19T02:41:00.424Z,20.82
2022-08-19T02:43:33.692Z,20.80
2022-08-19T02:46:03.329Z,20.79
2022-08-19T02:48:33.940Z,20.75
2022-08-19T02:51:02.799Z,20.75
2022-08-19T02:53:32.525Z,20.75
2022-08-19T02:56:01.071Z,20.70
2022-08-19T02:58:29.643Z,20.68
2022-08-19T03:00:59.509Z,20.66
2022-08-19T03:03:27.953Z,20.64
2022-08-19T03:06:11.049Z,20.65
2022-08-19T03:08:43.190Z,20.61
2022-08-19T03:11:17.103Z,20.60
2022-08-19T03:13:45.540Z,20.58
2022-08-19T03:16:15.074Z,20.52
2022-08-19T03:18:43.671Z,20.52
2022-08-19T03:21:17.287Z,20.46
2022-08-19T03:23:47.170Z,20.44
2022-08-19T03:26:17.085Z,20.42
2022-08-19T03:28:51.235Z,20.40
2022-08-19T03:31:43.773Z,20.39
2022-08-19T03:34:16.504Z,20.36
2022-08-19T03:36:45.525Z,20.30
2022-08-19T03:39:16.451Z,20.30
2022-08-19T03:41:48.523Z,20.37
2022-08-19T03:44:20.679Z,20.23
2022-08-19T03:46:51.608Z,20.28
2022-08-19T03:49:26.501Z,20.32
2022-08-19T03:51:58.209Z,20.33
2022-08-19T03:54:28.919Z,20.33
2022-08-19T03:56:59.411Z,20.35
2022-08-19T03:59:30.944Z,20.33
2022-08-19T04:02:02.845Z,20.30
2022-08-19T04:04:32.110Z,20.27
2022-08-19T04:07:00.527Z,20.19
2022-08-19T04:09:30.340Z,19.92
2022-08-19T04:12:00.085Z,19.99
2022-08-19T04:14:31.650Z,20.05
2022-08-19T04:17:01.120Z,20.13
2022-08-19T04:19:31.921Z,20.10
2022-08-19T04:22:00.405Z,20.07
2022-08-19T04:24:30.185Z,20.01
2022-08-19T04:26:59.125Z,19.99
2022-08-19T04:29:28.422Z,19.99
2022-08-19T04:31:59.541Z,20.00
2022-08-19T04:34:30.695Z,20.02
2022-08-19T04:37:00.983Z,20.04
2022-08-19T04:39:50.898Z,19.95
2022-08-19T04:42:37.996Z,19.97
2022-08-19T04:45:09.254Z,19.97
2022-08-19T04:47:48.315Z,19.94
2022-08-19T04:50:26.920Z,19.95
2022-08-19T04:52:56.595Z,19.95
2022-08-19T04:55:27.588Z,19.95
2022-08-19T04:57:56.119Z,19.94
2022-08-19T05:00:24.657Z,19.97
2022-08-19T05:02:53.209Z,20.00
2022-08-19T05:05:21.928Z,20.00
2022-08-19T05:07:50.407Z,20.07
2022-08-19T05:10:18.940Z,20.23
2022-08-19T05:12:48.636Z,20.38
2022-08-19T05:15:17.077Z,20.27
2022-08-19T05:18:05.412Z,20.29
2022-08-19T05:20:51.482Z,20.29
2022-08-19T05:23:22.762Z,20.46
2022-08-19T05:25:52.738Z,20.53
2022-08-19T05:28:22.835Z,19.75
2022-08-19T05:30:51.938Z,20.05
2022-08-19T05:33:20.863Z,20.33
2022-08-19T05:35:50.424Z,20.65
2022-08-19T05:38:19.142Z,21.04
2022-08-19T05:40:48.040Z,21.34
2022-08-19T05:43:17.512Z,21.53
2022-08-19T05:45:47.289Z,21.65
2022-08-19T05:48:16.178Z,21.92
2022-08-19T05:50:46.366Z,22.18
2022-08-19T05:53:17.468Z,21.61
2022-08-19T05:55:45.980Z,21.36
2022-08-19T05:58:14.374Z,20.85
2022-08-19T06:00:45.418Z,20.65
2022-08-19T06:03:15.122Z,21.13
2022-08-19T06:05:51.889Z,21.50
2022-08-19T06:08:33.934Z,21.32
2022-08-19T06:11:20.462Z,20.40
2022-08-19T06:13:51.923Z,21.07
2022-08-19T06:16:29.420Z,21.27
2022-08-19T06:19:01.992Z,22.51
2022-08-19T06:21:33.181Z,21.41
2022-08-19T06:24:02.082Z,22.63
2022-08-19T06:26:30.827Z,23.78
2022-08-19T06:28:59.700Z,23.84
2022-08-19T06:31:30.444Z,23.25
2022-08-19T06:34:00.113Z,24.00
2022-08-19T06:36:34.904Z,24.40
2022-08-19T06:39:04.969Z,24.91
2022-08-19T06:41:37.417Z,24.18
2022-08-19T06:44:09.056Z,24.67
2022-08-19T06:46:43.522Z,25.23
2022-08-19T06:49:23.903Z,24.59
2022-08-19T06:51:53.213Z,24.51
2022-08-19T06:54:23.698Z,25.11
2022-08-19T06:56:52.132Z,24.22
2022-08-19T06:59:23.414Z,24.48
2022-08-19T07:01:55.529Z,24.48
2022-08-19T07:04:28.768Z,24.74
2022-08-19T07:07:19.684Z,23.10
2022-08-19T07:09:54.372Z,22.73
2022-08-19T07:12:32.416Z,23.28
2022-08-19T07:15:00.783Z,23.57
2022-08-19T07:17:30.081Z,23.42
2022-08-19T07:20:05.448Z,24.18
2022-08-19T07:22:35.723Z,24.04
2022-08-19T07:25:07.486Z,24.75
2022-08-19T07:27:36.064Z,24.93
2022-08-19T07:30:06.589Z,24.37
2022-08-19T07:32:35.017Z,24.51
2022-08-19T07:35:06.836Z,25.22
2022-08-19T07:37:38.072Z,25.12
2022-08-19T07:40:08.871Z,25.52
2022-08-19T07:42:37.359Z,25.89
2022-08-19T07:45:08.417Z,25.01
2022-08-19T07:47:48.905Z,25.75
2022-08-19T07:50:22.615Z,25.15
2022-08-19T07:52:52.791Z,25.39
2022-08-19T07:55:42.234Z,24.79
2022-08-19T07:58:12.954Z,25.05
2022-08-19T08:00:41.659Z,25.43
2022-08-19T08:03:10.556Z,24.92
2022-08-19T08:05:58.042Z,24.98
2022-08-19T08:08:48.418Z,25.97
2022-08-19T08:11:21.233Z,25.37
2022-08-19T08:14:00.834Z,25.14
2022-08-19T08:16:32.192Z,24.59
2022-08-19T08:19:01.395Z,24.38
2022-08-19T08:21:31.225Z,24.42
2022-08-19T08:26:29.332Z,24.27
2022-08-19T08:29:00.284Z,24.01
2022-08-19T08:31:29.283Z,23.65
2022-08-19T08:33:57.725Z,23.13
2022-08-19T08:36:26.523Z,22.79
2022-08-19T08:41:44.956Z,23.63
2022-08-19T08:44:21.876Z,23.39
2022-08-19T08:46:55.723Z,24.37
2022-08-19T08:49:39.264Z,24.25
2022-08-19T08:52:11.912Z,24.40
2022-08-19T08:54:49.007Z,24.34
2022-08-19T08:57:37.126Z,24.80
2022-08-19T09:00:15.169Z,24.86
2022-08-19T09:02:44.434Z,25.76
2022-08-19T09:05:16.275Z,26.01
2022-08-19T09:08:01.091Z,25.64
2022-08-19T09:10:44.332Z,25.59
2022-08-19T09:13:23.167Z,25.51
2022-08-19T09:15:59.171Z,24.52
2022-08-19T09:18:29.726Z,24.47
2022-08-19T09:20:58.318Z,24.60
2022-08-19T09:23:27.241Z,24.57
2022-08-19T09:25:57.125Z,25.03
2022-08-19T09:28:27.380Z,24.46
2022-08-19T09:30:56.021Z,24.86
2022-08-19T09:33:24.547Z,25.31
2022-08-19T09:36:04.249Z,25.93
2022-08-19T09:38:43.493Z,25.01
2022-08-19T09:41:18.480Z,25.00
2022-08-19T09:43:50.227Z,24.53
2022-08-19T09:46:20.511Z,24.21
2022-08-19T09:48:53.167Z,24.26
2022-08-19T09:51:27.310Z,24.32
2022-08-19T09:54:01.147Z,24.43
2022-08-19T09:56:35.033Z,24.86
2022-08-19T09:59:05.848Z,25.49
2022-08-19T10:01:35.108Z,25.97
2022-08-19T10:04:14.664Z,25.33
2022-08-19T10:06:53.512Z,25.94
2022-08-19T10:09:33.930Z,26.27
2022-08-19T10:12:06.469Z,25.88
2022-08-19T10:14:40.638Z,25.51
2022-08-19T10:17:19.189Z,25.09
2022-08-19T10:19:55.550Z,24.80
2022-08-19T10:22:25.704Z,24.53
2022-08-19T10:24:54.908Z,24.36
2022-08-19T10:27:26.436Z,24.59
2022-08-19T10:29:55.135Z,24.39
2022-08-19T10:32:33.839Z,24.28
2022-08-19T10:35:06.028Z,25.14
2022-08-19T10:37:34.630Z,25.66
2022-08-19T10:40:05.478Z,25.77
2022-08-19T10:42:35.518Z,25.16
2022-08-19T10:45:04.877Z,24.94
2022-08-19T10:47:33.362Z,25.35
2022-08-19T10:50:19.618Z,25.57
2022-08-19T10:52:51.500Z,25.27
2022-08-19T10:55:41.271Z,26.00
2022-08-19T10:58:16.004Z,26.75
2022-08-19T11:00:45.652Z,26.18
2022-08-19T11:03:14.352Z,26.59
2022-08-19T11:05:43.025Z,26.10
2022-08-19T11:08:22.370Z,25.51
2022-08-19T11:10:54.690Z,25.28
2022-08-19T11:13:25.662Z,25.94
2022-08-19T11:16:07.108Z,27.10
2022-08-19T11:18:38.229Z,26.93
2022-08-19T11:21:13.091Z,25.98
2022-08-19T11:23:42.119Z,26.30
2022-08-19T11:26:10.548Z,26.52
2022-08-19T11:28:40.609Z,26.30
2022-08-19T11:31:13.837Z,26.83
2022-08-19T11:33:47.082Z,26.89
2022-08-19T11:36:17.526Z,26.58
2022-08-19T11:38:49.282Z,26.58
2022-08-19T11:41:19.974Z,27.15
2022-08-19T11:43:49.722Z,26.50
2022-08-19T11:46:19.360Z,25.97
2022-08-19T11:48:47.716Z,25.52
2022-08-19T11:51:22.555Z,25.36
2022-08-19T11:53:51.690Z,25.18
2022-08-19T11:56:21.448Z,25.59
2022-08-19T11:58:51.181Z,26.20
2022-08-19T12:01:22.790Z,26.43
2022-08-19T12:03:53.318Z,26.51
2022-08-19T12:06:26.600Z,26.71
2022-08-19T12:08:55.135Z,27.34
2022-08-19T12:11:23.805Z,26.71
2022-08-19T12:13:54.622Z,27.11
2022-08-19T12:16:27.903Z,26.84
2022-08-19T12:18:58.866Z,26.05
2022-08-19T12:21:30.200Z,25.71
2022-08-19T12:24:00.829Z,25.78
2022-08-19T12:26:32.446Z,26.48
2022-08-19T12:29:02.454Z,26.52
2022-08-19T12:31:31.553Z,26.65
2022-08-19T12:34:03.369Z,26.87
2022-08-19T12:36:31.726Z,27.06
2022-08-19T12:39:01.557Z,27.58
2022-08-19T12:41:30.047Z,26.69
2022-08-19T12:43:59.269Z,26.33
2022-08-19T12:46:28.964Z,26.49
2022-08-19T12:48:58.452Z,26.74
2022-08-19T12:51:28.108Z,26.52
2022-08-19T12:53:56.527Z,26.36
2022-08-19T12:56:24.920Z,26.59
2022-08-19T12:58:53.627Z,27.33
2022-08-19T13:01:23.281Z,27.69
2022-08-19T13:03:54.379Z,27.42
2022-08-19T13:06:23.836Z,27.39
2022-08-19T13:08:54.539Z,26.79
2022-08-19T13:11:26.414Z,26.84
2022-08-19T13:13:56.129Z,27.21
2022-08-19T13:16:24.631Z,26.73
2022-08-19T13:18:54.426Z,26.91
2022-08-19T13:21:24.957Z,27.52
2022-08-19T13:23:54.101Z,27.51
2022-08-19T13:26:23.041Z,27.18
2022-08-19T13:29:09.636Z,27.38
2022-08-19T13:31:59.385Z,27.56
2022-08-19T13:34:35.020Z,27.36
2022-08-19T13:37:05.319Z,27.59
2022-08-19T13:39:34.371Z,27.41
2022-08-19T13:42:05.253Z,27.13
2022-08-19T13:44:33.823Z,27.26
2022-08-19T13:47:07.960Z,27.45
2022-08-19T13:49:38.087Z,27.70
2022-08-19T13:52:07.604Z,27.21
2022-08-19T13:54:36.071Z,27.08
2022-08-19T13:57:04.840Z,26.78
2022-08-19T13:59:33.511Z,26.88
2022-08-19T14:02:02.882Z,27.04
2022-08-19T14:04:31.493Z,26.80
2022-08-19T14:07:01.792Z,26.88
2022-08-19T14:09:30.654Z,26.71
2022-08-19T14:11:59.028Z,27.00
2022-08-19T14:14:27.356Z,27.14
2022-08-19T14:16:55.740Z,27.07
2022-08-19T14:19:24.053Z,26.83
2022-08-19T14:21:53.175Z,26.35
2022-08-19T14:24:22.901Z,26.74
2022-08-19T14:26:51.261Z,26.94
2022-08-19T14:29:20.408Z,27.39
2022-08-19T14:31:49.486Z,27.46
2022-08-19T14:34:17.815Z,27.32
2022-08-19T14:36:47.025Z,27.25
2022-08-19T14:39:18.217Z,27.15
2022-08-19T14:41:48.060Z,27.47
2022-08-19T14:44:16.556Z,26.88
2022-08-19T14:46:49.279Z,27.29
2022-08-19T14:49:19.447Z,27.37
2022-08-19T14:51:48.694Z,27.53
2022-08-19T14:54:17.058Z,27.25
2022-08-19T14:56:45.459Z,27.40
2022-08-19T14:59:15.216Z,27.49
2022-08-19T15:01:44.083Z,27.37
2022-08-19T15:04:12.687Z,27.29
2022-08-19T15:06:43.297Z,27.55
2022-08-19T15:09:12.461Z,27.37
2022-08-19T15:11:40.828Z,27.45
2022-08-19T15:14:11.000Z,27.28
2022-08-19T15:16:42.808Z,27.22
2022-08-19T15:19:12.815Z,27.18
2022-08-19T15:21:41.166Z,27.33
2022-08-19T15:24:10.356Z,27.16
2022-08-19T15:26:38.768Z,27.46
2022-08-19T15:29:07.270Z,27.05
2022-08-19T15:31:38.186Z,27.09
2022-08-19T15:34:08.739Z,26.47
2022-08-19T15:36:37.927Z,27.16
2022-08-19T15:39:09.969Z,27.49
2022-08-19T15:41:39.537Z,27.08
2022-08-19T15:44:13.330Z,27.07
2022-08-19T15:46:44.759Z,27.03
2022-08-19T15:49:19.323Z,27.13
2022-08-19T15:51:52.003Z,26.91
2022-08-19T15:54:22.672Z,26.86
2022-08-19T15:57:18.223Z,26.68
2022-08-19T16:00:04.136Z,26.60
2022-08-19T16:03:02.532Z,26.78
2022-08-19T16:05:50.288Z,26.96
2022-08-19T16:08:18.687Z,26.94
2022-08-19T16:10:47.043Z,26.74
2022-08-19T16:13:15.407Z,26.53
2022-08-19T16:15:44.429Z,26.55
2022-08-19T16:18:12.793Z,26.63
2022-08-19T16:20:42.664Z,26.71
2022-08-19T16:23:11.160Z,26.92
2022-08-19T16:25:39.557Z,26.57
2022-08-19T16:28:09.870Z,26.75
2022-08-19T16:30:40.968Z,26.51
2022-08-19T16:33:11.109Z,26.73
2022-08-19T16:35:41.131Z,26.42
2022-08-19T16:38:09.986Z,26.50
2022-08-19T16:40:38.447Z,26.81
2022-08-19T16:43:08.431Z,26.73
2022-08-19T16:45:36.833Z,26.98
2022-08-19T16:48:06.069Z,26.59
2022-08-19T16:50:48.843Z,26.43
2022-08-19T16:53:22.786Z,26.27
2022-08-19T16:55:57.369Z,26.69
2022-08-19T16:58:29.527Z,26.55
2022-08-19T17:01:03.395Z,25.89
2022-08-19T17:03:36.009Z,26.44
2022-08-19T17:06:17.783Z,26.46
2022-08-19T17:08:51.457Z,26.66
2022-08-19T17:11:21.252Z,26.66
2022-08-19T17:13:50.927Z,26.88
2022-08-19T17:16:22.150Z,26.87
2022-08-19T17:18:52.885Z,26.62
2022-08-19T17:21:21.942Z,26.39
2022-08-19T17:23:51.680Z,26.28
2022-08-19T17:26:20.435Z,25.95
2022-08-19T17:28:50.883Z,25.65
2022-08-19T17:31:23.180Z,26.30
2022-08-19T17:33:52.168Z,26.24
2022-08-19T17:36:23.448Z,26.18
2022-08-19T17:38:55.347Z,25.85
2022-08-19T17:41:24.242Z,25.93
2022-08-19T17:43:52.746Z,25.66
2022-08-19T17:46:21.411Z,25.94
2022-08-19T17:48:53.107Z,25.75
2022-08-19T17:51:25.505Z,25.49
2022-08-19T17:53:55.956Z,26.03
2022-08-19T17:56:25.154Z,25.44
2022-08-19T17:59:00.020Z,25.80
2022-08-19T18:01:44.160Z,26.00
2022-08-19T18:04:20.004Z,26.08
2022-08-19T18:06:53.606Z,25.70
2022-08-19T18:09:26.597Z,25.59
2022-08-19T18:11:57.144Z,25.68
2022-08-19T18:14:33.774Z,25.76
2022-08-19T18:17:06.120Z,25.53
2022-08-19T18:19:41.607Z,25.83
2022-08-19T18:22:13.700Z,25.81
2022-08-19T18:24:45.837Z,25.79
2022-08-19T18:27:14.927Z,25.92
2022-08-19T18:29:43.496Z,25.50
2022-08-19T18:32:15.059Z,25.66
2022-08-19T18:34:45.855Z,25.90
2022-08-19T18:37:14.555Z,24.90
2022-08-19T18:40:02.232Z,24.51
2022-08-19T18:42:48.296Z,24.64
2022-08-19T18:45:34.109Z,24.50
2022-08-19T18:48:27.796Z,24.94
2022-08-19T18:50:58.885Z,23.90
2022-08-19T18:53:29.778Z,24.66
2022-08-19T18:55:59.887Z,24.67
2022-08-19T18:58:32.419Z,24.83
2022-08-19T19:01:02.949Z,25.04
2022-08-19T19:03:31.338Z,25.10
2022-08-19T19:05:59.651Z,25.06
2022-08-19T19:08:28.197Z,25.14
2022-08-19T19:11:05.042Z,25.47
2022-08-19T19:13:33.980Z,24.64
2022-08-19T19:16:02.561Z,24.99
2022-08-19T19:18:33.415Z,25.25
2022-08-19T19:21:01.786Z,24.93
2022-08-19T19:23:30.140Z,24.54
2022-08-19T19:26:00.492Z,24.58
2022-08-19T19:28:29.440Z,24.78
2022-08-19T19:30:59.130Z,25.15
2022-08-19T19:33:28.153Z,25.14
2022-08-19T19:35:56.607Z,24.97
2022-08-19T19:38:24.972Z,24.97
2022-08-19T19:40:53.289Z,24.84
2022-08-19T19:43:23.065Z,25.24
2022-08-19T19:45:52.134Z,25.26
2022-08-19T19:48:20.497Z,24.95
2022-08-19T19:50:54.159Z,25.11
2022-08-19T19:53:26.773Z,25.11
2022-08-19T19:55:58.618Z,24.87
2022-08-19T19:58:30.572Z,24.51
2022-08-19T20:01:02.023Z,24.59
2022-08-19T20:03:38.003Z,24.61
2022-08-19T20:06:07.018Z,25.11
2022-08-19T20:08:53.644Z,24.85
2022-08-19T20:11:34.673Z,24.94
2022-08-19T20:14:08.207Z,25.20
2022-08-19T20:16:38.304Z,25.26
2022-08-19T20:19:07.106Z,24.59
2022-08-19T20:21:36.146Z,24.82
2022-08-19T20:24:08.527Z,24.03
2022-08-19T20:26:38.341Z,24.78
2022-08-19T20:29:13.375Z,25.04
2022-08-19T20:31:57.719Z,24.78
2022-08-19T20:34:29.137Z,24.99
2022-08-19T20:36:57.452Z,24.88
2022-08-19T20:39:25.971Z,24.42
2022-08-19T20:41:56.397Z,24.98
2022-08-19T20:44:26.370Z,24.81
2022-08-19T20:46:57.489Z,25.01
2022-08-19T20:49:27.900Z,24.90
2022-08-19T20:51:57.299Z,24.61
2022-08-19T20:54:27.014Z,24.52
2022-08-19T20:56:55.800Z,25.17
2022-08-19T20:59:27.151Z,24.41
2022-08-19T21:01:55.643Z,23.61
2022-08-19T21:04:24.273Z,24.28
2022-08-19T21:06:52.708Z,24.65
2022-08-19T21:09:21.051Z,24.03
2022-08-19T21:11:49.456Z,24.01
2022-08-19T21:14:17.947Z,23.81
2022-08-19T21:16:47.807Z,23.75
2022-08-19T21:19:19.028Z,24.14
2022-08-19T21:21:50.498Z,24.07
2022-08-19T21:24:18.931Z,23.89
2022-08-19T21:26:51.204Z,24.07
2022-08-19T21:29:20.145Z,23.98
2022-08-19T21:31:50.279Z,24.04
2022-08-19T21:34:18.718Z,23.35
2022-08-19T21:36:47.163Z,23.26
2022-08-19T21:39:15.550Z,23.88
2022-08-19T21:41:43.966Z,23.69
2022-08-19T21:44:12.398Z,24.10
2022-08-19T21:46:40.766Z,23.83
2022-08-19T21:49:10.516Z,23.89
2022-08-19T21:51:38.893Z,23.61
2022-08-19T21:54:07.329Z,23.84
2022-08-19T21:56:42.419Z,23.51
2022-08-19T21:59:10.782Z,23.86
2022-08-19T22:01:39.159Z,24.04
2022-08-19T22:04:08.928Z,24.56
2022-08-19T22:06:37.297Z,24.69
2022-08-19T22:09:05.945Z,24.87
2022-08-19T22:11:34.626Z,24.59
2022-08-19T22:14:03.887Z,23.96
2022-08-19T22:16:33.725Z,23.45
2022-08-19T22:19:02.087Z,24.00
2022-08-19T22:21:40.158Z,23.84
2022-08-19T22:24:10.518Z,23.70
2022-08-19T22:26:38.911Z,23.62
2022-08-19T22:29:07.613Z,23.60
2022-08-19T22:31:37.636Z,24.27
2022-08-19T22:34:07.353Z,23.76
2022-08-19T22:36:37.026Z,23.32
2022-08-19T22:39:06.244Z,23.27
2022-08-19T22:41:34.951Z,23.51
2022-08-19T22:44:03.900Z,23.41
2022-08-19T22:46:33.705Z,24.12
2022-08-19T22:49:02.120Z,24.51
2022-08-19T22:51:48.156Z,23.84
2022-08-19T22:54:18.129Z,23.88
2022-08-19T22:56:46.905Z,23.86
2022-08-19T22:59:15.255Z,23.57
2022-08-19T23:01:43.664Z,23.38
2022-08-19T23:04:12.049Z,24.34
2022-08-19T23:06:42.381Z,24.00
2022-08-19T23:09:16.560Z,24.07
2022-08-19T23:11:47.335Z,24.04
2022-08-19T23:14:17.632Z,24.64
2022-08-19T23:16:50.991Z,24.52
2022-08-19T23:19:21.447Z,24.43
2022-08-19T23:21:50.033Z,24.61
2022-08-19T23:24:18.390Z,23.84
2022-08-19T23:27:05.772Z,23.70
2022-08-19T23:29:51.967Z,23.83
2022-08-19T23:32:21.615Z,23.52
2022-08-19T23:34:50.473Z,23.78
2022-08-19T23:37:19.339Z,23.22
2022-08-19T23:39:47.824Z,22.92
2022-08-19T23:42:17.604Z,23.16
2022-08-19T23:44:51.372Z,23.46
2022-08-19T23:47:20.227Z,23.31
2022-08-19T23:49:48.677Z,23.92
2022-08-19T23:52:17.108Z,23.64
2022-08-19T23:54:45.421Z,23.69
2022-08-19T23:57:14.546Z,23.44
2022-08-19T23:59:46.204Z,23.61
